UGKO Airport Information

Runway Information
Runway 08 Length 8202 ft width 144 ft
Elevation 197 ft Threshold 0 ft Heading 81
Runway 26 Length 8202 ft Width 144 ft
Elevation 223 ft Threshold 0 ft Heading 261
Airport Frequencies
Type TWR Name KUTAISI TW Frequency 125.5 MHZ
Airport Navaids
Type VOR-DME Name Kutaisi Frequency 113600 KHZ
Type NDB Name Kutaisi Frequency 477 KHZ
Type NDB Name Kutaisi Frequency 842 KHZ
Airport Weather Information & NOTAM
ADDS - METARS form results

(0601 UTC 31 March 2020)
Data provider http://aviationweather.gov/metar/data/
 
METAR text: UGKO 310600Z 12004KT 100V160 9999 SCT021 OVC040 10/09 Q1017 NOSIG
Conditions at: UGKO (KOPITNARI , GE) observed 0600 UTC 31 March 2020
Temperature: 10.0°C (50°F)
Dewpoint: 9.0°C (48°F) [RH = 93%]
Pressure (altimeter): 30.03 inches Hg (1017.0 mb)
Winds: from the ESE (120 degrees) at 5 MPH (4 knots; 2.1 m/s)
Visibility: 6 or more miles (10+ km)
Ceiling: 4000 feet AGL
Clouds: scattered clouds at 2100 feet AGL
overcast cloud deck at 4000 feet AGL
Weather: no significant weather observed at this time

METAR text: UGKO 310530Z 12003KT 090V150 9999 SCT021 OVC040 10/09 Q1016 NOSIG
Conditions at: UGKO (KOPITNARI , GE) observed 0530 UTC 31 March 2020
Temperature: 10.0°C (50°F)
Dewpoint: 9.0°C (48°F) [RH = 93%]
Pressure (altimeter): 30.00 inches Hg (1016.0 mb)
Winds: from the ESE (120 degrees) at 3 MPH (3 knots; 1.5 m/s)
Visibility: 6 or more miles (10+ km)
Ceiling: 4000 feet AGL
Clouds: scattered clouds at 2100 feet AGL
overcast cloud deck at 4000 feet AGL
Weather: no significant weather observed at this time

Forecast for: UGKO (KOPITNARI , GE)
Text: TAF UGKO 310500Z 3106/0106 09006KT 9999 SCT023 OVC040 TX16/3112Z TN04/0103Z
Forecast period: 0600 to 1200 UTC 31 March 2020
Forecast type: FROM: standard forecast or significant change
Winds: from the E (90 degrees) at 7 MPH (6 knots; 3.1 m/s)
Visibility: 6 or more miles 10+ km)
Ceiling: 4000 feet AGL
Clouds: scattered clouds at 2300 feet AGL
overcast cloud deck at 4000 feet AGL
Weather: no significant weather forecast for this period
Text: BECMG 3112/3114 CAVOK
Forecast period: 1200 UTC 31 March 2020 to 0600 UTC 01 April 2020
Forecast type: BECOMING: Conditions expected to become as follows by 1400 UTC 31 March 2020
Winds: from the E (90 degrees) at 7 MPH (6 knots; 3.1 m/s)
Visibility: 6 or more miles 10+ km)
Ceiling: unknown
Clouds: missing
Weather: NSW  (no significant weather)